createdAt,value
2018-07-22T00:02:06.269Z,18.90
2018-07-22T00:04:33.883Z,18.80
2018-07-22T00:07:01.504Z,18.70
2018-07-22T00:09:29.135Z,18.70
2018-07-22T00:11:56.767Z,18.70
2018-07-22T00:14:24.392Z,18.70
2018-07-22T00:16:51.988Z,18.70
2018-07-22T00:19:19.619Z,18.70
2018-07-22T00:21:47.220Z,18.70
2018-07-22T00:24:14.830Z,18.70
2018-07-22T00:26:42.427Z,18.70
2018-07-22T00:29:10.076Z,18.70
2018-07-22T00:31:37.706Z,18.60
2018-07-22T00:34:05.551Z,18.70
2018-07-22T00:36:33.151Z,18.70
2018-07-22T00:41:28.143Z,18.70
2018-07-22T00:43:55.754Z,18.60
2018-07-22T00:46:23.346Z,18.60
2018-07-22T00:48:50.964Z,18.50
2018-07-22T00:51:18.559Z,18.50
2018-07-22T00:53:46.179Z,18.50
2018-07-22T00:56:13.778Z,18.50
2018-07-22T00:58:41.391Z,18.40
2018-07-22T01:01:08.987Z,18.40
2018-07-22T01:03:36.603Z,18.30
2018-07-22T01:06:04.200Z,18.40
2018-07-22T01:08:31.796Z,18.30
2018-07-22T01:10:59.411Z,18.40
2018-07-22T01:13:27.036Z,18.40
2018-07-22T01:15:54.647Z,18.40
2018-07-22T01:18:22.244Z,18.40
2018-07-22T01:20:49.858Z,18.40
2018-07-22T01:23:17.451Z,18.40
2018-07-22T01:25:45.063Z,18.30
2018-07-22T01:28:12.660Z,18.40
2018-07-22T01:30:40.266Z,18.30
2018-07-22T01:33:07.858Z,18.40
2018-07-22T01:35:35.523Z,18.40
2018-07-22T01:38:03.119Z,18.30
2018-07-22T01:40:30.742Z,18.20
2018-07-22T01:42:58.342Z,18.20
2018-07-22T01:45:25.960Z,18.20
2018-07-22T01:47:53.568Z,18.10
2018-07-22T01:50:21.191Z,18.20
2018-07-22T01:52:48.795Z,18.10
2018-07-22T01:55:16.418Z,18.20
2018-07-22T01:57:44.027Z,18.30
2018-07-22T02:00:11.647Z,18.30
2018-07-22T02:02:39.244Z,18.40
2018-07-22T02:05:06.886Z,18.40
2018-07-22T02:07:34.479Z,18.30
2018-07-22T02:10:02.159Z,18.20
2018-07-22T02:12:29.807Z,18.20
2018-07-22T02:14:57.411Z,18.10
2018-07-22T02:17:25.046Z,18.10
2018-07-22T02:19:52.732Z,18.10
2018-07-22T02:22:20.344Z,18.00
2018-07-22T02:24:47.943Z,18.10
2018-07-22T02:27:15.564Z,18.10
2018-07-22T02:29:43.155Z,18.10
2018-07-22T02:32:10.775Z,18.10
2018-07-22T02:34:38.366Z,18.20
2018-07-22T02:37:05.983Z,18.20
2018-07-22T02:39:33.580Z,18.20
2018-07-22T02:42:01.204Z,18.20
2018-07-22T02:44:28.812Z,18.10
2018-07-22T02:46:56.453Z,18.10
2018-07-22T02:49:24.048Z,18.10
2018-07-22T02:51:51.703Z,18.10
2018-07-22T02:54:19.302Z,18.10
2018-07-22T02:56:46.916Z,18.10
2018-07-22T02:59:14.523Z,18.10
2018-07-22T03:01:42.144Z,18.00
2018-07-22T03:04:09.923Z,17.90
2018-07-22T03:06:37.540Z,17.90
2018-07-22T03:09:06.557Z,17.90
2018-07-22T03:11:34.190Z,17.90
2018-07-22T03:14:01.788Z,17.90
2018-07-22T03:16:29.403Z,17.90
2018-07-22T03:18:57.003Z,17.90
2018-07-22T03:21:24.644Z,18.00
2018-07-22T03:23:52.239Z,18.00
2018-07-22T03:26:19.848Z,18.00
2018-07-22T03:28:47.470Z,18.00
2018-07-22T03:31:15.351Z,18.00
2018-07-22T03:33:42.968Z,18.10
2018-07-22T03:38:38.114Z,18.10
2018-07-22T03:43:33.228Z,18.10
2018-07-22T03:46:00.835Z,18.10
2018-07-22T03:48:28.447Z,18.00
2018-07-22T03:50:56.044Z,17.90
2018-07-22T03:53:23.667Z,17.90
2018-07-22T03:55:51.269Z,17.90
2018-07-22T03:58:18.897Z,17.80
2018-07-22T04:00:46.492Z,17.80
2018-07-22T04:03:14.149Z,17.90
2018-07-22T04:05:41.744Z,17.90
2018-07-22T04:08:09.363Z,17.90
2018-07-22T04:10:36.963Z,17.90
2018-07-22T04:15:32.073Z,17.90
2018-07-22T04:17:59.713Z,17.90
2018-07-22T04:20:27.312Z,17.90
2018-07-22T04:22:54.927Z,17.90
2018-07-22T04:25:22.612Z,17.90
2018-07-22T04:27:50.227Z,18.00
2018-07-22T04:30:17.824Z,18.00
2018-07-22T04:32:45.547Z,18.00
2018-07-22T04:35:13.154Z,18.10
2018-07-22T04:37:40.751Z,18.00
2018-07-22T04:40:08.368Z,18.00
2018-07-22T04:42:35.968Z,18.00
2018-07-22T04:45:03.839Z,18.10
2018-07-22T04:47:31.443Z,18.00
2018-07-22T04:49:59.065Z,18.10
2018-07-22T04:52:26.671Z,18.10
2018-07-22T04:54:54.307Z,18.10
2018-07-22T04:57:21.910Z,18.10
2018-07-22T04:59:49.535Z,18.20
2018-07-22T05:02:17.130Z,18.20
2018-07-22T05:04:44.738Z,18.10
2018-07-22T05:07:12.335Z,18.20
2018-07-22T05:09:39.946Z,18.20
2018-07-22T05:12:07.564Z,18.30
2018-07-22T05:14:35.184Z,18.30
2018-07-22T05:17:02.779Z,18.30
2018-07-22T05:19:30.396Z,18.30
2018-07-22T05:21:57.998Z,18.40
2018-07-22T05:24:25.620Z,18.50
2018-07-22T05:26:53.247Z,18.50
2018-07-22T05:29:20.871Z,18.60
2018-07-22T05:31:48.471Z,18.60
2018-07-22T05:34:16.088Z,18.50
2018-07-22T05:36:43.688Z,18.50
2018-07-22T05:39:12.179Z,18.60
2018-07-22T05:41:40.147Z,18.60
2018-07-22T05:44:07.804Z,18.70
2018-07-22T05:46:35.616Z,18.60
2018-07-22T05:49:03.595Z,18.70
2018-07-22T05:51:31.212Z,18.70
2018-07-22T05:53:58.861Z,18.80
2018-07-22T05:56:26.476Z,18.70
2018-07-22T05:58:54.073Z,18.60
2018-07-22T06:01:21.692Z,18.60
2018-07-22T06:03:49.294Z,18.70
2018-07-22T06:06:16.911Z,18.70
2018-07-22T06:08:44.510Z,18.70
2018-07-22T06:11:12.236Z,18.80
2018-07-22T06:13:39.857Z,18.90
2018-07-22T06:16:07.480Z,18.80
2018-07-22T06:18:35.092Z,18.90
2018-07-22T06:21:02.726Z,18.80
2018-07-22T06:23:30.345Z,18.80
2018-07-22T06:25:57.971Z,18.70
2018-07-22T06:28:25.567Z,18.70
2018-07-22T06:30:53.182Z,18.80
2018-07-22T06:33:20.837Z,18.80
2018-07-22T06:35:48.423Z,19.00
2018-07-22T06:38:16.044Z,19.20
2018-07-22T06:40:43.663Z,19.30
2018-07-22T06:43:11.251Z,19.30
2018-07-22T06:45:38.867Z,19.40
2018-07-22T06:48:06.467Z,19.40
2018-07-22T06:50:34.092Z,19.40
2018-07-22T06:53:01.691Z,19.50
2018-07-22T06:55:29.300Z,19.60
2018-07-22T06:57:56.919Z,19.30
2018-07-22T07:00:24.588Z,19.40
2018-07-22T07:02:52.227Z,19.50
2018-07-22T07:05:19.945Z,19.60
2018-07-22T07:07:47.571Z,19.70
2018-07-22T07:10:15.165Z,19.80
2018-07-22T07:12:42.863Z,19.80
2018-07-22T07:15:10.472Z,19.90
2018-07-22T07:17:38.101Z,20.00
2018-07-22T07:20:23.162Z,20.00
2018-07-22T07:22:51.359Z,20.10
2018-07-22T07:25:18.955Z,20.10
2018-07-22T07:27:46.575Z,20.10
2018-07-22T07:30:14.175Z,20.20
2018-07-22T07:32:41.790Z,20.20
2018-07-22T07:35:09.391Z,20.10
2018-07-22T07:37:37.003Z,20.20
2018-07-22T07:40:04.655Z,20.20
2018-07-22T07:42:32.275Z,20.20
2018-07-22T07:44:59.873Z,20.40
2018-07-22T07:47:27.507Z,20.60
2018-07-22T07:49:55.175Z,20.70
2018-07-22T07:52:22.884Z,20.80
2018-07-22T07:54:50.531Z,20.60
2018-07-22T07:57:18.165Z,20.50
2018-07-22T07:59:45.825Z,20.60
2018-07-22T08:02:13.458Z,20.70
2018-07-22T08:04:41.060Z,20.90
2018-07-22T08:07:08.655Z,21.10
2018-07-22T08:09:36.278Z,21.30
2018-07-22T08:12:03.960Z,21.50
2018-07-22T08:14:31.575Z,21.40
2018-07-22T08:16:59.175Z,21.30
2018-07-22T08:19:26.895Z,21.20
2018-07-22T08:21:54.616Z,21.20
2018-07-22T08:24:22.234Z,21.30
2018-07-22T08:29:18.028Z,21.70
2018-07-22T08:31:45.782Z,21.60
2018-07-22T08:34:13.578Z,21.70
2018-07-22T08:36:41.184Z,21.90
2018-07-22T08:39:09.394Z,21.90
2018-07-22T08:41:37.071Z,21.90
2018-07-22T08:44:04.635Z,21.90
2018-07-22T08:46:32.222Z,22.00
2018-07-22T08:48:59.835Z,22.10
2018-07-22T08:51:27.428Z,22.10
2018-07-22T08:53:55.043Z,22.00
2018-07-22T08:56:22.707Z,21.90
2018-07-22T08:58:50.329Z,22.00
2018-07-22T09:01:18.198Z,22.10
2018-07-22T09:03:45.816Z,22.20
2018-07-22T09:06:13.419Z,22.20
2018-07-22T09:08:41.030Z,22.10
2018-07-22T09:11:08.635Z,22.20
2018-07-22T09:13:36.287Z,22.40
2018-07-22T09:16:04.339Z,22.30
2018-07-22T09:18:32.287Z,22.30
2018-07-22T09:20:59.997Z,22.30
2018-07-22T09:23:28.087Z,22.50
2018-07-22T09:25:55.699Z,22.60
2018-07-22T09:28:23.287Z,22.60
2018-07-22T09:30:50.907Z,22.50
2018-07-22T09:33:18.498Z,22.70
2018-07-22T09:35:46.714Z,22.80
2018-07-22T09:38:14.419Z,22.50
2018-07-22T09:40:42.055Z,22.50
2018-07-22T09:43:09.653Z,22.50
2018-07-22T09:45:37.277Z,22.70
2018-07-22T09:48:05.164Z,22.70
2018-07-22T09:50:33.654Z,22.70
2018-07-22T09:53:01.453Z,22.70
2018-07-22T09:55:29.298Z,23.00
2018-07-22T09:57:56.911Z,23.10
2018-07-22T10:00:30.203Z,23.20
2018-07-22T10:02:57.798Z,23.10
2018-07-22T10:05:25.455Z,23.20
2018-07-22T10:07:53.301Z,23.50
2018-07-22T10:10:20.915Z,23.60
2018-07-22T10:12:48.536Z,23.60
2018-07-22T10:15:16.149Z,23.60
2018-07-22T10:17:43.799Z,23.70
2018-07-22T10:20:11.387Z,23.70
2018-07-22T10:22:39.087Z,23.60
2018-07-22T10:25:06.719Z,23.20
2018-07-22T10:27:34.328Z,23.40
2018-07-22T10:30:01.939Z,23.50
2018-07-22T10:32:29.560Z,23.60
2018-07-22T10:34:57.159Z,23.80
2018-07-22T10:37:24.999Z,23.90
2018-07-22T10:39:52.600Z,23.80
2018-07-22T10:42:20.212Z,23.70
2018-07-22T10:47:15.327Z,23.80
2018-07-22T10:49:42.927Z,23.70
2018-07-22T10:52:10.543Z,23.70
2018-07-22T10:54:38.142Z,23.70
2018-07-22T10:57:05.763Z,23.80
2018-07-22T10:59:33.366Z,23.60
2018-07-22T11:02:01.003Z,23.70
2018-07-22T11:04:30.172Z,23.80
2018-07-22T11:06:57.888Z,23.70
2018-07-22T11:09:25.491Z,23.70
2018-07-22T11:11:53.155Z,23.60
2018-07-22T11:14:22.703Z,23.70
2018-07-22T11:16:50.363Z,23.60
2018-07-22T11:19:17.974Z,23.40
2018-07-22T11:21:45.622Z,23.20
2018-07-22T11:24:13.270Z,23.10
2018-07-22T11:26:40.888Z,23.20
2018-07-22T11:29:08.523Z,23.10
2018-07-22T11:31:36.171Z,23.20
2018-07-22T11:34:03.803Z,23.30
2018-07-22T11:36:31.428Z,23.10
2018-07-22T11:38:59.023Z,23.00
2018-07-22T11:41:26.653Z,23.20
2018-07-22T11:43:54.277Z,23.20
2018-07-22T11:46:21.945Z,22.90
2018-07-22T11:48:49.572Z,22.90
2018-07-22T11:51:17.172Z,22.80
2018-07-22T11:53:45.231Z,22.70
2018-07-22T11:56:12.832Z,22.80
2018-07-22T11:58:40.635Z,22.80
2018-07-22T12:01:08.251Z,22.70
2018-07-22T12:03:35.867Z,22.80
2018-07-22T12:06:03.755Z,22.90
2018-07-22T12:08:31.595Z,23.10
2018-07-22T12:13:26.675Z,23.10
2018-07-22T12:15:54.275Z,23.10
2018-07-22T12:18:22.000Z,23.00
2018-07-22T12:20:50.124Z,23.10
2018-07-22T12:23:17.752Z,23.00
2018-07-22T12:25:45.505Z,23.00
2018-07-22T12:28:13.126Z,22.70
2018-07-22T12:30:41.325Z,22.80
2018-07-22T12:33:08.997Z,23.00
2018-07-22T12:35:36.905Z,23.00
2018-07-22T12:38:04.615Z,23.20
2018-07-22T12:40:33.810Z,23.40
2018-07-22T12:43:01.495Z,23.50
2018-07-22T12:45:29.167Z,23.70
2018-07-22T12:47:56.764Z,24.00
2018-07-22T12:50:24.379Z,23.80
2018-07-22T12:52:54.156Z,24.00
2018-07-22T12:55:22.195Z,23.80
2018-07-22T12:57:50.044Z,23.70
2018-07-22T13:00:17.663Z,23.90
2018-07-22T13:02:45.256Z,23.60
2018-07-22T13:05:12.875Z,23.60
2018-07-22T13:07:41.047Z,23.50
2018-07-22T13:10:08.671Z,23.70
2018-07-22T13:12:36.314Z,23.80
2018-07-22T13:15:04.376Z,24.00
2018-07-22T13:17:31.971Z,24.40
2018-07-22T13:19:59.614Z,24.50
2018-07-22T13:22:28.147Z,24.40
2018-07-22T13:24:55.910Z,24.40
2018-07-22T13:27:23.634Z,24.60
2018-07-22T13:29:52.649Z,24.70
2018-07-22T13:32:20.309Z,24.80
2018-07-22T13:37:17.735Z,24.80
2018-07-22T13:39:45.406Z,24.90
2018-07-22T13:42:13.043Z,24.80
2018-07-22T13:44:40.732Z,24.60
2018-07-22T13:47:08.338Z,24.20
2018-07-22T13:49:36.000Z,24.00
2018-07-22T13:52:03.611Z,24.20
2018-07-22T13:54:31.247Z,24.10
2018-07-22T13:56:58.927Z,23.90
2018-07-22T13:59:26.599Z,24.00
2018-07-22T14:01:54.214Z,24.00
2018-07-22T14:04:21.815Z,23.80
2018-07-22T14:06:49.437Z,24.10
2018-07-22T14:09:17.036Z,24.30
2018-07-22T14:11:44.691Z,24.30
2018-07-22T14:14:12.503Z,24.40
2018-07-22T14:16:40.120Z,24.40
2018-07-22T14:19:07.798Z,24.40
2018-07-22T14:21:35.449Z,24.40
2018-07-22T14:24:03.052Z,24.60
2018-07-22T14:26:30.674Z,24.80
2018-07-22T14:28:58.295Z,24.90
2018-07-22T14:31:25.987Z,25.10
2018-07-22T14:33:53.607Z,25.10
2018-07-22T14:36:21.224Z,25.20
2018-07-22T14:38:48.810Z,25.30
2018-07-22T14:41:16.427Z,25.20
2018-07-22T14:43:44.115Z,25.50
2018-07-22T14:46:11.731Z,25.20
2018-07-22T14:48:39.330Z,25.30
2018-07-22T14:51:07.044Z,25.30
2018-07-22T14:53:34.750Z,25.60
2018-07-22T14:56:02.327Z,25.90
2018-07-22T14:58:29.939Z,26.00
2018-07-22T15:00:57.659Z,26.20
2018-07-22T15:03:25.259Z,25.90
2018-07-22T15:05:52.863Z,26.10
2018-07-22T15:08:20.487Z,26.60
2018-07-22T15:10:48.087Z,26.70
2018-07-22T15:13:15.732Z,26.90
2018-07-22T15:15:43.340Z,27.40
2018-07-22T15:18:10.955Z,27.20
2018-07-22T15:20:38.563Z,27.20
2018-07-22T15:23:06.175Z,27.20
2018-07-22T15:25:33.780Z,26.90
2018-07-22T15:28:01.399Z,27.50
2018-07-22T15:30:29.035Z,27.30
2018-07-22T15:32:56.643Z,27.30
2018-07-22T15:35:24.260Z,27.40
2018-07-22T15:37:51.882Z,27.20
2018-07-22T15:40:19.487Z,26.90
2018-07-22T15:42:47.108Z,26.40
2018-07-22T15:45:14.703Z,25.80
2018-07-22T15:47:42.392Z,25.40
2018-07-22T15:50:10.792Z,25.30
2018-07-22T15:52:38.412Z,25.60
2018-07-22T15:55:06.121Z,25.70
2018-07-22T15:57:33.739Z,26.20
2018-07-22T16:02:28.747Z,26.00
2018-07-22T16:04:56.347Z,26.30
2018-07-22T16:07:23.967Z,26.50
2018-07-22T16:09:51.571Z,26.40
2018-07-22T16:12:19.191Z,26.20
2018-07-22T16:14:46.863Z,26.00
2018-07-22T16:17:14.467Z,25.80
2018-07-22T16:19:42.084Z,25.50
2018-07-22T16:22:09.680Z,25.10
2018-07-22T16:24:37.319Z,24.90
2018-07-22T16:27:04.912Z,24.80
2018-07-22T16:29:32.599Z,24.80
2018-07-22T16:32:00.191Z,24.70
2018-07-22T16:34:27.808Z,24.50
2018-07-22T16:36:55.411Z,24.30
2018-07-22T16:41:50.383Z,24.40
2018-07-22T16:44:18.003Z,24.40
2018-07-22T16:46:45.590Z,24.30
2018-07-22T16:49:13.203Z,24.20
2018-07-22T16:51:40.808Z,24.30
2018-07-22T16:54:08.424Z,24.30
2018-07-22T16:56:36.022Z,24.20
2018-07-22T16:59:03.635Z,24.10
2018-07-22T17:01:31.248Z,24.10
2018-07-22T17:03:58.919Z,24.00
2018-07-22T17:06:26.572Z,23.90
2018-07-22T17:08:54.187Z,23.80
2018-07-22T17:11:21.790Z,23.60
2018-07-22T17:13:49.511Z,23.60
2018-07-22T17:16:17.127Z,23.50
2018-07-22T17:18:44.738Z,23.60
2018-07-22T17:21:12.355Z,23.60
2018-07-22T17:23:39.951Z,23.70
2018-07-22T17:26:07.567Z,23.70
2018-07-22T17:28:35.167Z,23.50
2018-07-22T17:31:02.795Z,23.50
2018-07-22T17:33:30.407Z,23.60
2018-07-22T17:35:58.023Z,23.50
2018-07-22T17:38:25.635Z,23.60
2018-07-22T17:40:53.254Z,23.50
2018-07-22T17:43:20.860Z,23.50
2018-07-22T17:45:48.478Z,23.50
2018-07-22T17:48:16.076Z,23.30
2018-07-22T17:50:43.699Z,23.30
2018-07-22T17:53:11.298Z,23.20
2018-07-22T17:55:38.915Z,23.00
2018-07-22T17:58:06.515Z,23.00
2018-07-22T18:00:34.126Z,22.90
2018-07-22T18:03:06.199Z,22.90
2018-07-22T18:05:33.867Z,22.80
2018-07-22T18:08:01.444Z,22.80
2018-07-22T18:10:29.107Z,22.80
2018-07-22T18:12:56.725Z,22.70
2018-07-22T18:15:24.359Z,22.60
2018-07-22T18:17:51.998Z,22.60
2018-07-22T18:20:19.599Z,22.50
2018-07-22T18:22:47.195Z,22.40
2018-07-22T18:25:14.815Z,22.40
2018-07-22T18:27:42.415Z,22.30
2018-07-22T18:30:10.015Z,22.30
2018-07-22T18:32:37.628Z,22.20
2018-07-22T18:35:05.229Z,22.10
2018-07-22T18:37:32.888Z,22.10
2018-07-22T18:40:00.499Z,22.00
2018-07-22T18:42:28.123Z,22.00
2018-07-22T18:44:55.739Z,21.90
2018-07-22T18:47:23.416Z,21.80
2018-07-22T18:49:51.080Z,21.70
2018-07-22T18:52:18.667Z,21.60
2018-07-22T18:54:46.267Z,21.50
2018-07-22T18:57:13.874Z,21.40
2018-07-22T18:59:41.484Z,21.40
2018-07-22T19:02:09.107Z,21.30
2018-07-22T19:04:36.718Z,21.20
2018-07-22T19:07:04.335Z,21.00
2018-07-22T19:09:31.951Z,20.90
2018-07-22T19:11:59.580Z,20.80
2018-07-22T19:14:27.185Z,20.70
2018-07-22T19:16:54.803Z,20.70
2018-07-22T19:19:22.527Z,20.60
2018-07-22T19:21:50.152Z,20.70
2018-07-22T19:24:17.748Z,20.70
2018-07-22T19:26:45.419Z,20.70
2018-07-22T19:29:13.019Z,20.80
2018-07-22T19:31:40.804Z,20.90
2018-07-22T19:34:08.415Z,20.90
2018-07-22T19:36:36.107Z,20.90
2018-07-22T19:39:05.421Z,20.90
2018-07-22T19:41:33.059Z,20.90
2018-07-22T19:44:00.682Z,20.90
2018-07-22T19:46:28.311Z,20.90
2018-07-22T19:48:56.021Z,20.90
2018-07-22T19:51:23.659Z,20.90
2018-07-22T19:53:51.271Z,20.90
2018-07-22T19:56:19.259Z,20.90
2018-07-22T19:58:46.895Z,20.80
2018-07-22T20:01:14.495Z,20.80
2018-07-22T20:03:42.157Z,20.80
2018-07-22T20:06:09.811Z,20.90
2018-07-22T20:08:37.430Z,20.80
2018-07-22T20:11:05.051Z,20.80
2018-07-22T20:13:32.699Z,20.70
2018-07-22T20:16:00.304Z,20.70
2018-07-22T20:18:27.920Z,20.60
2018-07-22T20:20:55.516Z,20.60
2018-07-22T20:23:23.134Z,20.60
2018-07-22T20:28:18.127Z,20.60
2018-07-22T20:30:45.726Z,20.50
2018-07-22T20:33:13.431Z,20.50
2018-07-22T20:35:41.033Z,20.50
2018-07-22T20:38:08.667Z,20.40
2018-07-22T20:40:36.269Z,20.40
2018-07-22T20:43:03.909Z,20.40
2018-07-22T20:45:31.528Z,20.40
2018-07-22T20:47:59.136Z,20.30
2018-07-22T20:50:26.755Z,20.30
2018-07-22T20:52:54.358Z,20.30
2018-07-22T20:55:21.966Z,20.30
2018-07-22T20:57:49.560Z,20.30
2018-07-22T21:00:17.176Z,20.30
2018-07-22T21:02:44.775Z,20.20
2018-07-22T21:05:12.388Z,20.20
2018-07-22T21:07:40.040Z,20.20
2018-07-22T21:10:07.655Z,20.10
2018-07-22T21:12:41.974Z,20.10
2018-07-22T21:15:09.650Z,20.10
2018-07-22T21:17:37.268Z,20.10
2018-07-22T21:20:05.219Z,20.10
2018-07-22T21:22:32.839Z,20.10
2018-07-22T21:25:00.471Z,20.10
2018-07-22T21:27:28.063Z,20.10
2018-07-22T21:29:56.412Z,20.10
2018-07-22T21:32:24.012Z,20.10
2018-07-22T21:34:51.659Z,20.00
2018-07-22T21:37:19.539Z,20.00
2018-07-22T21:39:47.155Z,20.00
2018-07-22T21:42:14.797Z,19.90
2018-07-22T21:44:42.615Z,19.80
2018-07-22T21:47:11.060Z,19.80
2018-07-22T21:49:38.675Z,19.80
2018-07-22T21:52:06.303Z,19.80
2018-07-22T21:54:33.898Z,19.80
2018-07-22T21:57:01.556Z,19.80
2018-07-22T21:59:29.211Z,19.80
2018-07-22T22:01:56.919Z,19.80
2018-07-22T22:04:24.586Z,19.70
2018-07-22T22:06:52.203Z,19.70
2018-07-22T22:09:19.834Z,19.70
2018-07-22T22:11:47.475Z,19.60
2018-07-22T22:14:15.067Z,19.60
2018-07-22T22:16:42.679Z,19.60
2018-07-22T22:19:10.280Z,19.60
2018-07-22T22:21:37.892Z,19.60
2018-07-22T22:24:05.528Z,19.60
2018-07-22T22:26:33.144Z,19.50
2018-07-22T22:29:00.748Z,19.50
2018-07-22T22:31:28.423Z,19.40
2018-07-22T22:33:56.028Z,19.40
2018-07-22T22:36:23.638Z,19.30
2018-07-22T22:38:51.249Z,19.30
2018-07-22T22:41:18.868Z,19.30
2018-07-22T22:43:46.757Z,19.30
2018-07-22T22:46:14.375Z,19.30
2018-07-22T22:48:42.003Z,19.30
2018-07-22T22:51:09.623Z,19.30
2018-07-22T22:53:37.331Z,19.30
2018-07-22T22:56:05.048Z,19.30
2018-07-22T22:58:38.401Z,19.30
2018-07-22T23:01:06.475Z,19.20
2018-07-22T23:03:34.072Z,19.30
2018-07-22T23:06:01.671Z,19.30
2018-07-22T23:08:29.312Z,19.30
2018-07-22T23:13:24.371Z,19.20
2018-07-22T23:15:51.999Z,19.10
2018-07-22T23:18:19.619Z,19.10
2018-07-22T23:20:47.229Z,19.10
2018-07-22T23:23:14.882Z,19.10
2018-07-22T23:25:42.475Z,19.10
2018-07-22T23:28:10.107Z,19.00
2018-07-22T23:30:37.698Z,19.00
2018-07-22T23:33:05.311Z,19.00
2018-07-22T23:35:32.908Z,19.00
2018-07-22T23:38:00.523Z,19.00
2018-07-22T23:40:28.119Z,18.90
2018-07-22T23:42:55.731Z,18.90
2018-07-22T23:45:23.318Z,18.90
2018-07-22T23:47:50.936Z,19.00
2018-07-22T23:50:18.539Z,18.90
2018-07-22T23:52:46.154Z,18.90
2018-07-22T23:55:13.751Z,18.90
2018-07-22T23:57:41.371Z,18.90
